sensor_id;sensor_type;location;lat;lon;timestamp;P1;durP1;ratioP1;P2;durP2;ratioP2
30472;SDS011;17263;48.160;11.452;2022-08-25T00:01:00;6.43;;;5.33;;
30472;SDS011;17263;48.160;11.452;2022-08-25T00:03:46;8.80;;;5.03;;
30472;SDS011;17263;48.160;11.452;2022-08-25T00:06:33;6.00;;;5.40;;
30472;SDS011;17263;48.160;11.452;2022-08-25T00:09:20;6.07;;;5.43;;
30472;SDS011;17263;48.160;11.452;2022-08-25T00:12:08;7.50;;;6.23;;
30472;SDS011;17263;48.160;11.452;2022-08-25T00:14:55;7.83;;;5.63;;
30472;SDS011;17263;48.160;11.452;2022-08-25T00:17:41;7.37;;;5.93;;
30472;SDS011;17263;48.160;11.452;2022-08-25T00:20:28;6.43;;;5.70;;
30472;SDS011;17263;48.160;11.452;2022-08-25T00:23:14;7.20;;;6.50;;
30472;SDS011;17263;48.160;11.452;2022-08-25T00:26:00;6.43;;;5.67;;
30472;SDS011;17263;48.160;11.452;2022-08-25T00:28:47;6.83;;;5.70;;
30472;SDS011;17263;48.160;11.452;2022-08-25T00:31:34;8.43;;;5.37;;
30472;SDS011;17263;48.160;11.452;2022-08-25T00:34:22;9.03;;;6.00;;
30472;SDS011;17263;48.160;11.452;2022-08-25T00:37:14;9.33;;;6.47;;
30472;SDS011;17263;48.160;11.452;2022-08-25T00:40:01;7.63;;;6.37;;
30472;SDS011;17263;48.160;11.452;2022-08-25T00:42:48;8.40;;;6.50;;
30472;SDS011;17263;48.160;11.452;2022-08-25T00:45:34;6.30;;;5.70;;
30472;SDS011;17263;48.160;11.452;2022-08-25T00:48:22;7.17;;;6.23;;
30472;SDS011;17263;48.160;11.452;2022-08-25T00:51:09;7.13;;;6.30;;
30472;SDS011;17263;48.160;11.452;2022-08-25T00:53:58;7.47;;;6.40;;
30472;SDS011;17263;48.160;11.452;2022-08-25T00:56:45;7.53;;;6.77;;
30472;SDS011;17263;48.160;11.452;2022-08-25T00:59:32;7.60;;;6.83;;
30472;SDS011;17263;48.160;11.452;2022-08-25T01:02:19;7.17;;;6.47;;
30472;SDS011;17263;48.160;11.452;2022-08-25T01:05:05;8.07;;;7.33;;
30472;SDS011;17263;48.160;11.452;2022-08-25T01:07:53;7.97;;;6.80;;
30472;SDS011;17263;48.160;11.452;2022-08-25T01:10:41;6.97;;;6.37;;
30472;SDS011;17263;48.160;11.452;2022-08-25T01:13:31;7.30;;;6.57;;
30472;SDS011;17263;48.160;11.452;2022-08-25T01:16:24;7.20;;;6.47;;
30472;SDS011;17263;48.160;11.452;2022-08-25T01:19:12;7.60;;;6.90;;
30472;SDS011;17263;48.160;11.452;2022-08-25T01:21:59;8.73;;;7.20;;
30472;SDS011;17263;48.160;11.452;2022-08-25T01:24:51;7.63;;;6.83;;
30472;SDS011;17263;48.160;11.452;2022-08-25T01:27:50;8.00;;;6.93;;
30472;SDS011;17263;48.160;11.452;2022-08-25T01:30:37;7.50;;;6.80;;
30472;SDS011;17263;48.160;11.452;2022-08-25T01:33:23;8.23;;;7.33;;
30472;SDS011;17263;48.160;11.452;2022-08-25T01:36:10;8.60;;;7.80;;
30472;SDS011;17263;48.160;11.452;2022-08-25T01:38:56;9.17;;;7.17;;
30472;SDS011;17263;48.160;11.452;2022-08-25T01:44:57;9.27;;;7.83;;
30472;SDS011;17263;48.160;11.452;2022-08-25T01:47:44;8.23;;;7.10;;
30472;SDS011;17263;48.160;11.452;2022-08-25T01:50:30;9.50;;;7.23;;
30472;SDS011;17263;48.160;11.452;2022-08-25T01:53:20;9.03;;;8.13;;
30472;SDS011;17263;48.160;11.452;2022-08-25T01:56:09;8.43;;;7.63;;
30472;SDS011;17263;48.160;11.452;2022-08-25T01:58:57;8.47;;;7.60;;
30472;SDS011;17263;48.160;11.452;2022-08-25T02:01:43;8.83;;;8.00;;
30472;SDS011;17263;48.160;11.452;2022-08-25T02:04:30;8.67;;;7.87;;
30472;SDS011;17263;48.160;11.452;2022-08-25T02:07:17;11.10;;;7.80;;
30472;SDS011;17263;48.160;11.452;2022-08-25T02:10:04;9.10;;;8.20;;
30472;SDS011;17263;48.160;11.452;2022-08-25T02:12:52;9.00;;;8.10;;
30472;SDS011;17263;48.160;11.452;2022-08-25T02:15:40;7.93;;;7.13;;
30472;SDS011;17263;48.160;11.452;2022-08-25T02:18:27;8.23;;;7.43;;
30472;SDS011;17263;48.160;11.452;2022-08-25T02:21:14;9.50;;;7.57;;
30472;SDS011;17263;48.160;11.452;2022-08-25T02:24:01;8.43;;;7.63;;
30472;SDS011;17263;48.160;11.452;2022-08-25T02:26:48;9.30;;;8.40;;
30472;SDS011;17263;48.160;11.452;2022-08-25T02:29:35;9.00;;;8.10;;
30472;SDS011;17263;48.160;11.452;2022-08-25T02:32:21;8.93;;;8.03;;
30472;SDS011;17263;48.160;11.452;2022-08-25T02:35:08;10.00;;;8.13;;
30472;SDS011;17263;48.160;11.452;2022-08-25T02:37:54;8.50;;;7.73;;
30472;SDS011;17263;48.160;11.452;2022-08-25T02:40:40;9.23;;;8.33;;
30472;SDS011;17263;48.160;11.452;2022-08-25T02:43:27;8.70;;;7.90;;
30472;SDS011;17263;48.160;11.452;2022-08-25T02:46:14;8.93;;;8.00;;
30472;SDS011;17263;48.160;11.452;2022-08-25T02:49:02;9.07;;;8.17;;
30472;SDS011;17263;48.160;11.452;2022-08-25T02:51:49;10.20;;;9.00;;
30472;SDS011;17263;48.160;11.452;2022-08-25T02:54:35;10.77;;;8.53;;
30472;SDS011;17263;48.160;11.452;2022-08-25T02:57:22;9.27;;;8.37;;
30472;SDS011;17263;48.160;11.452;2022-08-25T03:00:09;8.83;;;8.03;;
30472;SDS011;17263;48.160;11.452;2022-08-25T03:02:57;8.67;;;7.77;;
30472;SDS011;17263;48.160;11.452;2022-08-25T03:05:44;10.97;;;8.47;;
30472;SDS011;17263;48.160;11.452;2022-08-25T03:08:31;10.27;;;8.17;;
30472;SDS011;17263;48.160;11.452;2022-08-25T03:11:17;9.10;;;7.70;;
30472;SDS011;17263;48.160;11.452;2022-08-25T03:14:05;9.40;;;8.33;;
30472;SDS011;17263;48.160;11.452;2022-08-25T03:16:52;9.17;;;8.27;;
30472;SDS011;17263;48.160;11.452;2022-08-25T03:19:38;9.30;;;8.17;;
30472;SDS011;17263;48.160;11.452;2022-08-25T03:22:25;8.60;;;7.80;;
30472;SDS011;17263;48.160;11.452;2022-08-25T03:25:11;8.60;;;7.80;;
30472;SDS011;17263;48.160;11.452;2022-08-25T03:28:16;9.47;;;8.47;;
30472;SDS011;17263;48.160;11.452;2022-08-25T03:31:03;9.07;;;8.17;;
30472;SDS011;17263;48.160;11.452;2022-08-25T03:33:50;8.93;;;7.80;;
30472;SDS011;17263;48.160;11.452;2022-08-25T03:36:36;9.47;;;7.47;;
30472;SDS011;17263;48.160;11.452;2022-08-25T03:39:24;8.87;;;7.97;;
30472;SDS011;17263;48.160;11.452;2022-08-25T03:42:11;13.53;;;8.70;;
30472;SDS011;17263;48.160;11.452;2022-08-25T03:44:57;11.20;;;8.77;;
30472;SDS011;17263;48.160;11.452;2022-08-25T03:47:45;12.47;;;8.40;;
30472;SDS011;17263;48.160;11.452;2022-08-25T03:50:33;9.70;;;8.70;;
30472;SDS011;17263;48.160;11.452;2022-08-25T03:53:20;10.47;;;8.73;;
30472;SDS011;17263;48.160;11.452;2022-08-25T03:56:06;11.07;;;9.53;;
30472;SDS011;17263;48.160;11.452;2022-08-25T03:58:53;11.33;;;10.00;;
30472;SDS011;17263;48.160;11.452;2022-08-25T04:01:41;10.60;;;9.23;;
30472;SDS011;17263;48.160;11.452;2022-08-25T04:04:28;10.57;;;9.47;;
30472;SDS011;17263;48.160;11.452;2022-08-25T04:07:15;11.43;;;9.07;;
30472;SDS011;17263;48.160;11.452;2022-08-25T04:10:03;10.47;;;8.87;;
30472;SDS011;17263;48.160;11.452;2022-08-25T04:12:50;11.17;;;10.03;;
30472;SDS011;17263;48.160;11.452;2022-08-25T04:15:40;10.07;;;9.17;;
30472;SDS011;17263;48.160;11.452;2022-08-25T04:18:28;11.43;;;9.80;;
30472;SDS011;17263;48.160;11.452;2022-08-25T04:21:16;11.10;;;10.00;;
30472;SDS011;17263;48.160;11.452;2022-08-25T04:24:03;11.43;;;9.80;;
30472;SDS011;17263;48.160;11.452;2022-08-25T04:26:50;11.17;;;9.47;;
30472;SDS011;17263;48.160;11.452;2022-08-25T04:29:36;11.30;;;10.13;;
30472;SDS011;17263;48.160;11.452;2022-08-25T04:32:23;10.03;;;9.03;;
30472;SDS011;17263;48.160;11.452;2022-08-25T04:35:09;11.67;;;10.57;;
30472;SDS011;17263;48.160;11.452;2022-08-25T04:37:55;11.60;;;9.57;;
30472;SDS011;17263;48.160;11.452;2022-08-25T04:40:42;12.73;;;10.23;;
30472;SDS011;17263;48.160;11.452;2022-08-25T04:43:29;11.03;;;9.93;;
30472;SDS011;17263;48.160;11.452;2022-08-25T04:46:18;10.87;;;9.70;;
30472;SDS011;17263;48.160;11.452;2022-08-25T04:49:06;10.93;;;9.83;;
30472;SDS011;17263;48.160;11.452;2022-08-25T04:51:52;11.27;;;10.17;;
30472;SDS011;17263;48.160;11.452;2022-08-25T04:54:41;10.60;;;9.50;;
30472;SDS011;17263;48.160;11.452;2022-08-25T04:57:28;11.07;;;9.93;;
30472;SDS011;17263;48.160;11.452;2022-08-25T05:00:15;10.50;;;9.40;;
30472;SDS011;17263;48.160;11.452;2022-08-25T05:03:02;11.77;;;9.20;;
30472;SDS011;17263;48.160;11.452;2022-08-25T05:05:50;11.43;;;9.67;;
30472;SDS011;17263;48.160;11.452;2022-08-25T05:08:37;11.47;;;10.27;;
30472;SDS011;17263;48.160;11.452;2022-08-25T05:11:24;14.30;;;11.10;;
30472;SDS011;17263;48.160;11.452;2022-08-25T05:14:11;14.70;;;11.90;;
30472;SDS011;17263;48.160;11.452;2022-08-25T05:17:00;10.67;;;9.57;;
30472;SDS011;17263;48.160;11.452;2022-08-25T05:19:46;9.93;;;8.93;;
30472;SDS011;17263;48.160;11.452;2022-08-25T05:22:32;13.20;;;10.73;;
30472;SDS011;17263;48.160;11.452;2022-08-25T05:25:19;12.03;;;10.73;;
30472;SDS011;17263;48.160;11.452;2022-08-25T05:28:05;12.10;;;10.90;;
30472;SDS011;17263;48.160;11.452;2022-08-25T05:30:56;12.47;;;10.50;;
30472;SDS011;17263;48.160;11.452;2022-08-25T05:33:43;10.67;;;9.17;;
30472;SDS011;17263;48.160;11.452;2022-08-25T05:36:30;10.33;;;9.33;;
30472;SDS011;17263;48.160;11.452;2022-08-25T05:39:17;9.83;;;8.83;;
30472;SDS011;17263;48.160;11.452;2022-08-25T05:42:03;10.70;;;9.20;;
30472;SDS011;17263;48.160;11.452;2022-08-25T05:44:50;10.33;;;8.50;;
30472;SDS011;17263;48.160;11.452;2022-08-25T05:47:36;10.23;;;8.43;;
30472;SDS011;17263;48.160;11.452;2022-08-25T05:50:22;9.90;;;9.10;;
30472;SDS011;17263;48.160;11.452;2022-08-25T05:53:09;10.23;;;9.20;;
30472;SDS011;17263;48.160;11.452;2022-08-25T05:55:55;8.83;;;8.03;;
30472;SDS011;17263;48.160;11.452;2022-08-25T05:58:43;9.00;;;8.10;;
30472;SDS011;17263;48.160;11.452;2022-08-25T06:01:29;11.10;;;9.10;;
30472;SDS011;17263;48.160;11.452;2022-08-25T06:04:34;9.80;;;8.90;;
30472;SDS011;17263;48.160;11.452;2022-08-25T06:07:21;9.70;;;8.70;;
30472;SDS011;17263;48.160;11.452;2022-08-25T06:10:07;8.70;;;7.83;;
30472;SDS011;17263;48.160;11.452;2022-08-25T06:12:56;8.70;;;7.90;;
30472;SDS011;17263;48.160;11.452;2022-08-25T06:15:42;8.63;;;7.83;;
30472;SDS011;17263;48.160;11.452;2022-08-25T06:18:28;9.67;;;8.67;;
30472;SDS011;17263;48.160;11.452;2022-08-25T06:21:15;10.43;;;9.17;;
30472;SDS011;17263;48.160;11.452;2022-08-25T06:24:03;9.77;;;8.83;;
30472;SDS011;17263;48.160;11.452;2022-08-25T06:26:50;10.18;;;9.00;;
30472;SDS011;17263;48.160;11.452;2022-08-25T06:29:37;11.68;;;9.13;;
30472;SDS011;17263;48.160;11.452;2022-08-25T06:32:23;8.80;;;7.90;;
30472;SDS011;17263;48.160;11.452;2022-08-25T06:35:12;9.95;;;8.95;;
30472;SDS011;17263;48.160;11.452;2022-08-25T06:38:03;12.48;;;8.65;;
30472;SDS011;17263;48.160;11.452;2022-08-25T06:40:49;9.32;;;8.43;;
30472;SDS011;17263;48.160;11.452;2022-08-25T06:43:39;8.52;;;7.68;;
30472;SDS011;17263;48.160;11.452;2022-08-25T06:46:27;11.43;;;8.25;;
30472;SDS011;17263;48.160;11.452;2022-08-25T06:49:14;8.43;;;7.63;;
30472;SDS011;17263;48.160;11.452;2022-08-25T06:52:01;9.07;;;7.63;;
30472;SDS011;17263;48.160;11.452;2022-08-25T06:54:48;9.18;;;7.57;;
30472;SDS011;17263;48.160;11.452;2022-08-25T06:57:34;9.07;;;8.18;;
30472;SDS011;17263;48.160;11.452;2022-08-25T07:00:21;8.95;;;8.05;;
30472;SDS011;17263;48.160;11.452;2022-08-25T07:03:07;8.63;;;7.82;;
30472;SDS011;17263;48.160;11.452;2022-08-25T07:05:54;7.18;;;6.47;;
30472;SDS011;17263;48.160;11.452;2022-08-25T07:08:41;7.50;;;6.80;;
30472;SDS011;17263;48.160;11.452;2022-08-25T07:11:27;8.07;;;7.00;;
30472;SDS011;17263;48.160;11.452;2022-08-25T07:14:15;7.47;;;6.88;;
30472;SDS011;17263;48.160;11.452;2022-08-25T07:17:02;8.80;;;6.80;;
30472;SDS011;17263;48.160;11.452;2022-08-25T07:19:49;8.27;;;7.47;;
30472;SDS011;17263;48.160;11.452;2022-08-25T07:22:35;8.40;;;7.53;;
30472;SDS011;17263;48.160;11.452;2022-08-25T07:25:21;8.70;;;6.95;;
30472;SDS011;17263;48.160;11.452;2022-08-25T07:28:08;8.05;;;7.20;;
30472;SDS011;17263;48.160;11.452;2022-08-25T07:30:54;7.55;;;6.95;;
30472;SDS011;17263;48.160;11.452;2022-08-25T07:33:45;6.88;;;6.10;;
30472;SDS011;17263;48.160;11.452;2022-08-25T07:36:50;7.40;;;6.70;;
30472;SDS011;17263;48.160;11.452;2022-08-25T07:39:37;8.23;;;7.43;;
30472;SDS011;17263;48.160;11.452;2022-08-25T07:42:23;7.35;;;6.35;;
30472;SDS011;17263;48.160;11.452;2022-08-25T07:45:11;7.40;;;6.28;;
30472;SDS011;17263;48.160;11.452;2022-08-25T07:48:00;6.93;;;6.22;;
30472;SDS011;17263;48.160;11.452;2022-08-25T07:50:54;6.32;;;5.75;;
30472;SDS011;17263;48.160;11.452;2022-08-25T07:53:41;6.45;;;5.95;;
30472;SDS011;17263;48.160;11.452;2022-08-25T07:56:27;6.10;;;5.53;;
30472;SDS011;17263;48.160;11.452;2022-08-25T07:59:14;9.73;;;5.85;;
30472;SDS011;17263;48.160;11.452;2022-08-25T08:02:00;5.85;;;5.25;;
30472;SDS011;17263;48.160;11.452;2022-08-25T08:04:47;6.28;;;5.32;;
30472;SDS011;17263;48.160;11.452;2022-08-25T08:07:36;5.03;;;4.50;;
30472;SDS011;17263;48.160;11.452;2022-08-25T08:10:23;6.68;;;5.97;;
30472;SDS011;17263;48.160;11.452;2022-08-25T08:13:10;6.50;;;5.90;;
30472;SDS011;17263;48.160;11.452;2022-08-25T08:15:56;7.63;;;6.13;;
30472;SDS011;17263;48.160;11.452;2022-08-25T08:18:43;5.57;;;5.10;;
30472;SDS011;17263;48.160;11.452;2022-08-25T08:21:32;5.97;;;5.38;;
30472;SDS011;17263;48.160;11.452;2022-08-25T08:24:19;5.75;;;5.15;;
30472;SDS011;17263;48.160;11.452;2022-08-25T08:27:06;7.07;;;5.40;;
30472;SDS011;17263;48.160;11.452;2022-08-25T08:29:53;5.63;;;5.07;;
30472;SDS011;17263;48.160;11.452;2022-08-25T08:32:39;5.25;;;4.82;;
30472;SDS011;17263;48.160;11.452;2022-08-25T08:35:26;5.72;;;5.22;;
30472;SDS011;17263;48.160;11.452;2022-08-25T08:38:12;5.43;;;4.93;;
30472;SDS011;17263;48.160;11.452;2022-08-25T08:44:19;5.65;;;4.82;;
30472;SDS011;17263;48.160;11.452;2022-08-25T08:53:42;5.78;;;5.25;;
30472;SDS011;17263;48.160;11.452;2022-08-25T08:56:34;5.03;;;4.63;;
30472;SDS011;17263;48.160;11.452;2022-08-25T08:59:25;6.00;;;5.40;;
30472;SDS011;17263;48.160;11.452;2022-08-25T09:02:22;5.45;;;4.78;;
30472;SDS011;17263;48.160;11.452;2022-08-25T09:05:13;6.38;;;5.68;;
30472;SDS011;17263;48.160;11.452;2022-08-25T09:08:05;5.07;;;4.68;;
30472;SDS011;17263;48.160;11.452;2022-08-25T09:10:55;5.18;;;4.70;;
30472;SDS011;17263;48.160;11.452;2022-08-25T09:17:09;6.03;;;4.97;;
30472;SDS011;17263;48.160;11.452;2022-08-25T09:20:02;5.38;;;4.88;;
30472;SDS011;17263;48.160;11.452;2022-08-25T09:26:19;5.82;;;5.22;;
30472;SDS011;17263;48.160;11.452;2022-08-25T09:29:30;5.85;;;4.88;;
30472;SDS011;17263;48.160;11.452;2022-08-25T09:32:33;5.75;;;5.10;;
30472;SDS011;17263;48.160;11.452;2022-08-25T09:35:26;5.93;;;4.55;;
30472;SDS011;17263;48.160;11.452;2022-08-25T09:38:15;5.50;;;5.00;;
30472;SDS011;17263;48.160;11.452;2022-08-25T09:41:01;6.57;;;5.47;;
30472;SDS011;17263;48.160;11.452;2022-08-25T09:43:52;5.60;;;5.10;;
30472;SDS011;17263;48.160;11.452;2022-08-25T09:46:39;6.50;;;4.55;;
30472;SDS011;17263;48.160;11.452;2022-08-25T09:49:42;7.47;;;5.20;;
30472;SDS011;17263;48.160;11.452;2022-08-25T09:52:31;7.13;;;5.13;;
30472;SDS011;17263;48.160;11.452;2022-08-25T09:55:26;5.35;;;4.93;;
30472;SDS011;17263;48.160;11.452;2022-08-25T09:58:17;5.68;;;5.18;;
30472;SDS011;17263;48.160;11.452;2022-08-25T10:01:13;8.93;;;5.85;;
30472;SDS011;17263;48.160;11.452;2022-08-25T10:04:05;6.15;;;5.60;;
30472;SDS011;17263;48.160;11.452;2022-08-25T10:06:51;6.10;;;5.40;;
30472;SDS011;17263;48.160;11.452;2022-08-25T10:09:41;7.10;;;5.70;;
30472;SDS011;17263;48.160;11.452;2022-08-25T10:12:29;5.53;;;5.05;;
30472;SDS011;17263;48.160;11.452;2022-08-25T10:15:31;7.50;;;6.60;;
30472;SDS011;17263;48.160;11.452;2022-08-25T10:18:27;8.88;;;6.15;;
30472;SDS011;17263;48.160;11.452;2022-08-25T10:21:15;6.10;;;5.50;;
30472;SDS011;17263;48.160;11.452;2022-08-25T10:24:04;7.47;;;6.10;;
30472;SDS011;17263;48.160;11.452;2022-08-25T10:26:56;6.05;;;5.55;;
30472;SDS011;17263;48.160;11.452;2022-08-25T10:29:56;6.55;;;5.70;;
30472;SDS011;17263;48.160;11.452;2022-08-25T10:36:16;6.82;;;5.95;;
30472;SDS011;17263;48.160;11.452;2022-08-25T10:39:08;5.45;;;4.95;;
30472;SDS011;17263;48.160;11.452;2022-08-25T10:48:18;6.07;;;5.47;;
30472;SDS011;17263;48.160;11.452;2022-08-25T10:57:28;6.40;;;5.80;;
30472;SDS011;17263;48.160;11.452;2022-08-25T11:00:21;5.80;;;5.20;;
30472;SDS011;17263;48.160;11.452;2022-08-25T11:03:23;5.63;;;4.97;;
30472;SDS011;17263;48.160;11.452;2022-08-25T11:06:27;5.38;;;4.85;;
30472;SDS011;17263;48.160;11.452;2022-08-25T11:09:24;5.85;;;5.25;;
30472;SDS011;17263;48.160;11.452;2022-08-25T11:12:29;6.28;;;5.78;;
30472;SDS011;17263;48.160;11.452;2022-08-25T11:15:37;7.88;;;5.43;;
30472;SDS011;17263;48.160;11.452;2022-08-25T11:18:35;5.55;;;5.03;;
30472;SDS011;17263;48.160;11.452;2022-08-25T11:22:03;7.57;;;5.83;;
30472;SDS011;17263;48.160;11.452;2022-08-25T11:25:13;5.68;;;4.68;;
30472;SDS011;17263;48.160;11.452;2022-08-25T11:28:25;6.03;;;5.43;;
30472;SDS011;17263;48.160;11.452;2022-08-25T11:31:13;6.93;;;5.55;;
30472;SDS011;17263;48.160;11.452;2022-08-25T11:34:01;5.82;;;5.32;;
30472;SDS011;17263;48.160;11.452;2022-08-25T11:36:49;5.95;;;5.30;;
30472;SDS011;17263;48.160;11.452;2022-08-25T11:43:12;6.15;;;5.55;;
30472;SDS011;17263;48.160;11.452;2022-08-25T11:46:17;9.23;;;5.78;;
30472;SDS011;17263;48.160;11.452;2022-08-25T11:55:20;7.30;;;6.38;;
30472;SDS011;17263;48.160;11.452;2022-08-25T11:58:22;8.52;;;6.38;;
30472;SDS011;17263;48.160;11.452;2022-08-25T12:07:28;6.20;;;5.60;;
30472;SDS011;17263;48.160;11.452;2022-08-25T12:10:54;6.82;;;6.18;;
30472;SDS011;17263;48.160;11.452;2022-08-25T12:13:48;7.90;;;5.85;;
30472;SDS011;17263;48.160;11.452;2022-08-25T12:25:07;6.60;;;6.00;;
30472;SDS011;17263;48.160;11.452;2022-08-25T12:28:49;6.25;;;5.53;;
30472;SDS011;17263;48.160;11.452;2022-08-25T12:43:37;10.02;;;5.95;;
30472;SDS011;17263;48.160;11.452;2022-08-25T12:49:32;8.30;;;5.40;;
30472;SDS011;17263;48.160;11.452;2022-08-25T12:52:20;11.27;;;5.85;;
30472;SDS011;17263;48.160;11.452;2022-08-25T12:55:08;12.07;;;6.82;;
30472;SDS011;17263;48.160;11.452;2022-08-25T12:57:57;9.05;;;5.85;;
30472;SDS011;17263;48.160;11.452;2022-08-25T13:01:09;8.32;;;6.07;;
30472;SDS011;17263;48.160;11.452;2022-08-25T13:07:50;12.75;;;7.40;;
30472;SDS011;17263;48.160;11.452;2022-08-25T13:11:01;14.90;;;7.93;;
30472;SDS011;17263;48.160;11.452;2022-08-25T13:14:02;13.65;;;7.13;;
30472;SDS011;17263;48.160;11.452;2022-08-25T13:17:04;10.45;;;6.93;;
30472;SDS011;17263;48.160;11.452;2022-08-25T13:19:51;10.65;;;7.40;;
30472;SDS011;17263;48.160;11.452;2022-08-25T13:22:37;13.40;;;7.35;;
30472;SDS011;17263;48.160;11.452;2022-08-25T13:25:25;11.80;;;7.78;;
30472;SDS011;17263;48.160;11.452;2022-08-25T13:28:21;12.70;;;7.75;;
30472;SDS011;17263;48.160;11.452;2022-08-25T13:31:16;15.32;;;7.47;;
30472;SDS011;17263;48.160;11.452;2022-08-25T13:34:07;9.07;;;6.90;;
30472;SDS011;17263;48.160;11.452;2022-08-25T13:37:06;9.80;;;6.97;;
30472;SDS011;17263;48.160;11.452;2022-08-25T13:43:06;12.25;;;6.85;;
30472;SDS011;17263;48.160;11.452;2022-08-25T13:45:55;11.38;;;7.07;;
30472;SDS011;17263;48.160;11.452;2022-08-25T13:48:41;8.85;;;7.03;;
30472;SDS011;17263;48.160;11.452;2022-08-25T13:51:29;11.30;;;7.05;;
30472;SDS011;17263;48.160;11.452;2022-08-25T13:54:28;9.13;;;6.47;;
30472;SDS011;17263;48.160;11.452;2022-08-25T13:57:18;13.95;;;7.03;;
30472;SDS011;17263;48.160;11.452;2022-08-25T14:00:08;8.10;;;7.03;;
30472;SDS011;17263;48.160;11.452;2022-08-25T14:02:56;9.73;;;6.68;;
30472;SDS011;17263;48.160;11.452;2022-08-25T14:05:44;11.77;;;7.00;;
30472;SDS011;17263;48.160;11.452;2022-08-25T14:08:32;12.02;;;7.28;;
30472;SDS011;17263;48.160;11.452;2022-08-25T14:11:39;12.40;;;7.40;;
30472;SDS011;17263;48.160;11.452;2022-08-25T14:14:59;13.13;;;7.57;;
30472;SDS011;17263;48.160;11.452;2022-08-25T14:17:58;12.35;;;7.47;;
30472;SDS011;17263;48.160;11.452;2022-08-25T14:21:11;14.65;;;7.57;;
30472;SDS011;17263;48.160;11.452;2022-08-25T14:23:58;17.85;;;7.25;;
30472;SDS011;17263;48.160;11.452;2022-08-25T14:26:45;10.40;;;7.45;;
30472;SDS011;17263;48.160;11.452;2022-08-25T14:29:31;11.48;;;6.22;;
30472;SDS011;17263;48.160;11.452;2022-08-25T14:32:17;15.13;;;7.35;;
30472;SDS011;17263;48.160;11.452;2022-08-25T14:35:04;8.57;;;6.72;;
30472;SDS011;17263;48.160;11.452;2022-08-25T14:37:51;11.55;;;6.90;;
30472;SDS011;17263;48.160;11.452;2022-08-25T14:40:37;10.00;;;6.32;;
30472;SDS011;17263;48.160;11.452;2022-08-25T14:43:24;9.77;;;6.57;;
30472;SDS011;17263;48.160;11.452;2022-08-25T14:46:16;9.30;;;6.60;;
30472;SDS011;17263;48.160;11.452;2022-08-25T14:49:07;11.88;;;6.15;;
30472;SDS011;17263;48.160;11.452;2022-08-25T14:51:56;13.13;;;6.82;;
30472;SDS011;17263;48.160;11.452;2022-08-25T14:54:58;10.57;;;6.50;;
30472;SDS011;17263;48.160;11.452;2022-08-25T14:57:44;10.15;;;7.38;;
30472;SDS011;17263;48.160;11.452;2022-08-25T15:00:39;10.90;;;6.32;;
30472;SDS011;17263;48.160;11.452;2022-08-25T15:03:29;8.18;;;6.75;;
30472;SDS011;17263;48.160;11.452;2022-08-25T15:06:20;13.00;;;7.45;;
30472;SDS011;17263;48.160;11.452;2022-08-25T15:09:06;8.88;;;6.80;;
30472;SDS011;17263;48.160;11.452;2022-08-25T15:11:56;12.90;;;7.30;;
30472;SDS011;17263;48.160;11.452;2022-08-25T15:14:43;11.82;;;7.43;;
30472;SDS011;17263;48.160;11.452;2022-08-25T15:17:29;10.38;;;7.40;;
30472;SDS011;17263;48.160;11.452;2022-08-25T15:20:15;12.10;;;7.53;;
30472;SDS011;17263;48.160;11.452;2022-08-25T15:23:02;9.77;;;7.13;;
30472;SDS011;17263;48.160;11.452;2022-08-25T15:25:49;8.05;;;6.55;;
30472;SDS011;17263;48.160;11.452;2022-08-25T15:28:37;14.00;;;7.05;;
30472;SDS011;17263;48.160;11.452;2022-08-25T15:31:26;15.68;;;6.78;;
30472;SDS011;17263;48.160;11.452;2022-08-25T15:34:12;14.23;;;7.47;;
30472;SDS011;17263;48.160;11.452;2022-08-25T15:36:59;10.60;;;7.30;;
30472;SDS011;17263;48.160;11.452;2022-08-25T15:39:55;12.30;;;7.47;;
30472;SDS011;17263;48.160;11.452;2022-08-25T15:42:41;13.63;;;8.10;;
30472;SDS011;17263;48.160;11.452;2022-08-25T15:45:28;14.85;;;7.72;;
30472;SDS011;17263;48.160;11.452;2022-08-25T15:48:14;10.88;;;7.63;;
30472;SDS011;17263;48.160;11.452;2022-08-25T15:51:00;14.20;;;7.65;;
30472;SDS011;17263;48.160;11.452;2022-08-25T15:53:47;13.18;;;8.07;;
30472;SDS011;17263;48.160;11.452;2022-08-25T15:56:33;15.40;;;8.40;;
30472;SDS011;17263;48.160;11.452;2022-08-25T15:59:20;21.63;;;8.88;;
30472;SDS011;17263;48.160;11.452;2022-08-25T16:02:06;12.63;;;7.82;;
30472;SDS011;17263;48.160;11.452;2022-08-25T16:04:52;13.50;;;7.57;;
30472;SDS011;17263;48.160;11.452;2022-08-25T16:07:39;21.05;;;8.48;;
30472;SDS011;17263;48.160;11.452;2022-08-25T16:10:25;15.05;;;7.65;;
30472;SDS011;17263;48.160;11.452;2022-08-25T16:13:12;17.70;;;8.02;;
30472;SDS011;17263;48.160;11.452;2022-08-25T16:15:58;18.33;;;7.85;;
30472;SDS011;17263;48.160;11.452;2022-08-25T16:18:45;11.88;;;7.50;;
30472;SDS011;17263;48.160;11.452;2022-08-25T16:21:33;9.68;;;7.25;;
30472;SDS011;17263;48.160;11.452;2022-08-25T16:24:22;12.20;;;7.10;;
30472;SDS011;17263;48.160;11.452;2022-08-25T16:27:09;16.73;;;7.18;;
30472;SDS011;17263;48.160;11.452;2022-08-25T16:29:56;13.13;;;7.13;;
30472;SDS011;17263;48.160;11.452;2022-08-25T16:32:42;15.68;;;7.47;;
30472;SDS011;17263;48.160;11.452;2022-08-25T16:35:29;13.85;;;7.75;;
30472;SDS011;17263;48.160;11.452;2022-08-25T16:38:15;11.13;;;6.68;;
30472;SDS011;17263;48.160;11.452;2022-08-25T16:41:06;14.07;;;7.50;;
30472;SDS011;17263;48.160;11.452;2022-08-25T16:43:53;14.18;;;7.22;;
30472;SDS011;17263;48.160;11.452;2022-08-25T16:46:40;15.52;;;7.00;;
30472;SDS011;17263;48.160;11.452;2022-08-25T16:49:27;10.50;;;6.57;;
30472;SDS011;17263;48.160;11.452;2022-08-25T16:52:14;14.57;;;6.93;;
30472;SDS011;17263;48.160;11.452;2022-08-25T16:55:19;12.50;;;7.13;;
30472;SDS011;17263;48.160;11.452;2022-08-25T16:58:06;12.88;;;6.63;;
30472;SDS011;17263;48.160;11.452;2022-08-25T17:00:54;13.05;;;6.22;;
30472;SDS011;17263;48.160;11.452;2022-08-25T17:03:40;17.25;;;7.68;;
30472;SDS011;17263;48.160;11.452;2022-08-25T17:06:32;13.07;;;7.32;;
30472;SDS011;17263;48.160;11.452;2022-08-25T17:09:21;13.05;;;7.38;;
30472;SDS011;17263;48.160;11.452;2022-08-25T17:12:07;18.60;;;7.75;;
30472;SDS011;17263;48.160;11.452;2022-08-25T17:14:56;20.13;;;7.55;;
30472;SDS011;17263;48.160;11.452;2022-08-25T17:17:42;15.88;;;7.97;;
30472;SDS011;17263;48.160;11.452;2022-08-25T17:20:28;16.23;;;7.65;;
30472;SDS011;17263;48.160;11.452;2022-08-25T17:23:15;12.30;;;7.30;;
30472;SDS011;17263;48.160;11.452;2022-08-25T17:26:01;13.00;;;7.57;;
30472;SDS011;17263;48.160;11.452;2022-08-25T17:28:49;16.92;;;7.80;;
30472;SDS011;17263;48.160;11.452;2022-08-25T17:31:36;18.45;;;7.63;;
30472;SDS011;17263;48.160;11.452;2022-08-25T17:34:24;15.48;;;7.13;;
30472;SDS011;17263;48.160;11.452;2022-08-25T17:37:11;15.10;;;7.55;;
30472;SDS011;17263;48.160;11.452;2022-08-25T17:39:57;17.30;;;7.10;;
30472;SDS011;17263;48.160;11.452;2022-08-25T17:42:44;14.88;;;7.43;;
30472;SDS011;17263;48.160;11.452;2022-08-25T17:45:31;13.77;;;7.47;;
30472;SDS011;17263;48.160;11.452;2022-08-25T17:48:18;16.40;;;7.70;;
30472;SDS011;17263;48.160;11.452;2022-08-25T17:51:05;15.15;;;7.93;;
30472;SDS011;17263;48.160;11.452;2022-08-25T17:53:52;17.63;;;7.60;;
30472;SDS011;17263;48.160;11.452;2022-08-25T17:56:38;15.82;;;7.35;;
30472;SDS011;17263;48.160;11.452;2022-08-25T17:59:25;19.58;;;8.77;;
30472;SDS011;17263;48.160;11.452;2022-08-25T18:02:14;16.27;;;7.65;;